Time;durP1;ratioP1;P1;durP2;ratioP2;P2;SDS_P1;SDS_P2;PMS_P1;PMS_P2;Temp;Humidity;BMP_temperature;BMP_pressure;BME280_temperature;BME280_humidity;BME280_pressure;Samples;Min_cycle;Max_cycle;Signal;HPM_P1;HPM_P2
2022/01/22 11:48:21;;;;;;;40.95;18.75;;;6.60;99.90;;;;;;4996153;28;20506;-73
2022/01/22 11:50:49;;;;;;;41.25;18.50;;;6.60;99.90;;;;;;5008162;28;20113;-76
2022/01/22 11:53:32;;;;;;;44.22;18.10;;;6.60;99.90;;;;;;5008161;28;20654;-76
2022/01/22 11:56:10;;;;;;;42.20;18.90;;;6.60;99.90;;;;;;5005095;28;20014;-77
2022/01/22 11:59:04;;;;;;;41.97;19.48;;;6.60;99.90;;;;;;4990592;28;20419;-76
2022/01/22 12:01:52;;;;;;;38.90;18.42;;;6.50;99.90;;;;;;4993112;28;20391;-77
2022/01/22 12:04:39;;;;;;;39.78;17.23;;;6.50;99.90;;;;;;4993661;28;20073;-76
2022/01/22 12:07:06;;;;;;;47.00;18.55;;;6.50;99.90;;;;;;4993227;28;20030;-76
2022/01/22 12:09:36;;;;;;;41.22;18.15;;;6.50;99.90;;;;;;4993221;28;20027;-76
2022/01/22 12:15:12;;;;;;;41.75;19.00;;;6.50;99.90;;;;;;5005996;28;20122;-76
2022/01/22 12:17:47;;;;;;;42.00;18.45;;;6.50;99.90;;;;;;5010296;28;20055;-76
2022/01/22 12:23:10;;;;;;;41.90;18.77;;;6.50;99.90;;;;;;5009583;28;20029;-76
2022/01/22 12:25:35;;;;;;;36.65;17.58;;;6.50;99.90;;;;;;5006487;28;20259;-76
2022/01/22 12:28:03;;;;;;;42.88;18.35;;;6.60;99.90;;;;;;4990998;28;20037;-77
2022/01/22 12:30:38;;;;;;;59.35;19.50;;;6.60;99.90;;;;;;5008645;28;20018;-76
2022/01/22 12:33:09;;;;;;;46.13;19.17;;;6.70;99.90;;;;;;5009270;28;20022;-76
2022/01/22 12:35:38;;;;;;;43.22;20.27;;;6.70;99.90;;;;;;5008256;28;20029;-76
2022/01/22 12:38:30;;;;;;;41.88;19.35;;;6.70;99.90;;;;;;5010683;28;20561;-76
2022/01/22 12:44:13;;;;;;;44.35;18.45;;;6.80;99.90;;;;;;4993264;28;20053;-76
2022/01/22 12:46:39;;;;;;;39.47;17.30;;;6.80;99.90;;;;;;5006752;28;20026;-76
2022/01/22 12:49:08;;;;;;;47.38;20.15;;;6.70;99.90;;;;;;5009493;28;20029;-76
2022/01/22 12:51:35;;;;;;;42.70;18.77;;;6.70;99.90;;;;;;5024861;28;20061;-76
2022/01/22 12:54:02;;;;;;;34.22;16.50;;;6.80;99.90;;;;;;5023383;28;20099;-76
2022/01/22 12:59:08;;;;;;;41.60;19.60;;;6.80;99.90;;;;;;5029997;28;20079;-76
2022/01/22 13:01:36;;;;;;;53.88;17.92;;;6.80;99.90;;;;;;5026070;28;20143;-76
2022/01/22 13:04:06;;;;;;;43.15;18.45;;;6.80;99.90;;;;;;5034353;28;20518;-76
2022/01/22 13:06:41;;;;;;;33.00;17.02;;;6.90;99.90;;;;;;5033072;28;20502;-76
2022/01/22 13:09:12;;;;;;;36.83;16.75;;;6.90;99.90;;;;;;5034061;28;20021;-76
2022/01/22 13:11:48;;;;;;;36.58;16.98;;;7.00;99.90;;;;;;5034335;28;20692;-77
2022/01/22 13:14:16;;;;;;;39.38;17.70;;;7.00;99.90;;;;;;5034347;28;20025;-76
2022/01/22 13:16:53;;;;;;;36.90;17.52;;;7.10;99.90;;;;;;5034074;28;20026;-76
2022/01/22 13:19:20;;;;;;;40.08;17.08;;;7.10;99.90;;;;;;5033961;28;20033;-76
2022/01/22 13:21:56;;;;;;;42.75;20.38;;;7.10;99.90;;;;;;5032842;28;20037;-76
2022/01/22 13:24:27;;;;;;;43.47;19.65;;;7.10;99.90;;;;;;5032856;28;20168;-76
2022/01/22 13:27:03;;;;;;;44.15;19.75;;;7.10;99.90;;;;;;5033634;28;20025;-76
2022/01/22 13:29:29;;;;;;;49.35;21.30;;;7.10;99.90;;;;;;5034029;28;20018;-76
2022/01/22 13:32:12;;;;;;;50.33;21.42;;;7.10;99.90;;;;;;5016020;28;20025;-76
2022/01/22 13:38:29;;;;;;;52.15;20.92;;;7.10;99.90;;;;;;4953417;29;20035;-76
2022/01/22 13:49:03;;;;;;;46.75;20.40;;;7.00;99.90;;;;;;5033411;28;20466;-76
2022/01/22 13:51:30;;;;;;;50.83;21.80;;;7.00;99.90;;;;;;5033270;28;20033;-76
2022/01/22 13:53:57;;;;;;;49.63;21.85;;;6.90;99.90;;;;;;5030153;28;20050;-76
2022/01/22 13:57:04;;;;;;;52.95;22.98;;;6.90;99.90;;;;;;5029339;28;20029;-76
2022/01/22 13:59:35;;;;;;;44.10;19.63;;;6.80;99.90;;;;;;4972256;28;20034;-76
2022/01/22 14:04:51;;;;;;;45.63;20.42;;;6.80;99.90;;;;;;4999045;28;20037;-76
2022/01/22 14:07:23;;;;;;;52.40;21.90;;;6.80;99.90;;;;;;4994505;28;20199;-76
2022/01/22 14:09:58;;;;;;;50.13;21.58;;;6.70;99.90;;;;;;5013262;28;20030;-76
2022/01/22 14:12:40;;;;;;;51.97;23.05;;;6.70;99.90;;;;;;5012857;28;20094;-76
2022/01/22 14:15:27;;;;;;;52.83;22.23;;;6.60;99.90;;;;;;5012436;28;20472;-77
2022/01/22 14:18:17;;;;;;;54.20;22.20;;;6.70;99.90;;;;;;5022263;28;20024;-76
2022/01/22 14:20:50;;;;;;;51.40;22.30;;;6.70;99.90;;;;;;5024001;28;20344;-77
2022/01/22 14:23:17;;;;;;;50.15;21.90;;;6.60;99.90;;;;;;5033720;28;20022;-77
2022/01/22 14:25:55;;;;;;;53.50;23.55;;;6.60;99.90;;;;;;5033760;28;20390;-77
2022/01/22 14:28:23;;;;;;;55.40;23.95;;;6.50;99.90;;;;;;5005062;28;20037;-77
2022/01/22 14:30:49;;;;;;;65.75;24.38;;;6.40;99.90;;;;;;5021942;28;20175;-77
2022/01/22 14:33:18;;;;;;;58.72;24.50;;;6.40;99.90;;;;;;5006162;28;20515;-77
2022/01/22 14:35:59;;;;;;;55.53;23.73;;;6.40;99.90;;;;;;5030738;28;20471;-77
2022/01/22 14:38:40;;;;;;;51.22;21.63;;;6.40;99.90;;;;;;5023282;28;20018;-77
2022/01/22 14:47:04;;;;;;;54.88;24.92;;;6.20;99.90;;;;;;5016025;28;20506;-77
2022/01/22 14:49:44;;;;;;;;;;;6.20;99.90;;;;;;5014141;28;20029;-77
2022/01/22 14:52:12;;;;;;;59.38;24.50;;;6.20;99.90;;;;;;5013752;28;19910;-76
2022/01/22 14:54:43;;;;;;;54.22;23.92;;;6.10;99.90;;;;;;4995564;28;20052;-76
2022/01/22 14:57:10;;;;;;;55.35;23.85;;;6.10;99.90;;;;;;5009008;28;20479;-76
2022/01/22 14:59:38;;;;;;;54.45;24.52;;;6.10;99.90;;;;;;4988234;28;20239;-76
2022/01/22 15:02:05;;;;;;;51.75;24.08;;;6.10;99.90;;;;;;5003187;28;20068;-76
2022/01/22 15:04:32;;;;;;;55.30;23.48;;;6.10;99.90;;;;;;5012177;28;20045;-76
2022/01/22 15:07:00;;;;;;;49.47;22.60;;;6.10;99.90;;;;;;5007887;28;20124;-73
2022/01/22 15:09:29;;;;;;;51.33;24.70;;;6.10;99.90;;;;;;5008212;28;20032;-73
2022/01/22 15:11:55;;;;;;;56.75;25.08;;;6.10;99.90;;;;;;5007475;28;20014;-73
2022/01/22 15:14:23;;;;;;;63.83;26.73;;;6.10;99.90;;;;;;4994795;28;20117;-74
2022/01/22 15:17:03;;;;;;;58.00;26.80;;;6.10;99.90;;;;;;5011573;28;20092;-73
2022/01/22 15:19:29;;;;;;;58.28;25.08;;;6.10;99.90;;;;;;4994041;28;20033;-73
2022/01/22 15:21:55;;;;;;;56.58;23.55;;;6.10;99.90;;;;;;4994815;28;20521;-73
2022/01/22 15:24:21;;;;;;;58.22;26.45;;;6.10;99.90;;;;;;5012580;28;20531;-73
2022/01/22 15:26:50;;;;;;;84.47;35.15;;;6.00;99.90;;;;;;5012178;28;20061;-73
2022/01/22 15:29:24;;;;;;;75.30;31.60;;;6.00;99.90;;;;;;5006163;28;20029;-73
2022/01/22 15:31:53;;;;;;;65.07;27.20;;;6.00;99.90;;;;;;4994499;28;20438;-73
2022/01/22 15:36:59;;;;;;;69.22;29.95;;;5.90;99.90;;;;;;5009450;28;20030;-73
2022/01/22 15:39:26;;;;;;;66.50;25.80;;;5.90;99.90;;;;;;5012836;28;20017;-73
2022/01/22 15:41:52;;;;;;;57.47;27.23;;;5.90;99.90;;;;;;5011730;28;20052;-73
2022/01/22 15:44:20;;;;;;;59.03;25.23;;;5.80;99.90;;;;;;5011465;28;20471;-72
2022/01/22 15:46:48;;;;;;;65.40;28.55;;;5.70;99.90;;;;;;5013044;28;20077;-73
2022/01/22 15:49:19;;;;;;;63.03;27.75;;;5.70;99.90;;;;;;5011761;28;20026;-73
2022/01/22 15:51:54;;;;;;;59.35;27.63;;;5.60;99.90;;;;;;4994129;28;20034;-73
2022/01/22 15:54:20;;;;;;;60.67;27.98;;;5.60;99.90;;;;;;5002801;28;20018;-73
2022/01/22 15:56:47;;;;;;;56.47;27.75;;;5.50;99.90;;;;;;4996434;28;20093;-73
2022/01/22 15:59:15;;;;;;;62.72;27.83;;;5.30;99.90;;;;;;4989814;28;20022;-73
2022/01/22 16:01:42;;;;;;;69.25;27.08;;;5.20;99.90;;;;;;4997811;28;20128;-73
2022/01/22 16:04:08;;;;;;;63.65;28.98;;;5.20;99.90;;;;;;4977026;28;20363;-73
2022/01/22 16:07:01;;;;;;;64.90;27.60;;;5.20;99.90;;;;;;4983533;28;20030;-73
2022/01/22 16:09:31;;;;;;;60.15;28.13;;;5.10;99.90;;;;;;4987979;28;20037;-73
2022/01/22 16:11:58;;;;;;;68.03;27.92;;;5.20;99.90;;;;;;4989478;28;20034;-73
2022/01/22 16:14:24;;;;;;;59.20;27.15;;;5.10;99.90;;;;;;4970119;28;20026;-73
2022/01/22 16:16:51;;;;;;;62.90;27.00;;;5.10;99.90;;;;;;5011935;28;21026;-73
2022/01/22 16:19:21;;;;;;;65.55;29.17;;;5.10;99.90;;;;;;5008909;28;20093;-74
2022/01/22 16:21:47;;;;;;;65.20;28.10;;;5.00;99.90;;;;;;5005134;28;20038;-73
2022/01/22 16:24:14;;;;;;;55.33;28.45;;;4.80;99.90;;;;;;4993250;28;20357;-73
2022/01/22 16:26:51;;;;;;;67.20;28.55;;;4.80;99.90;;;;;;5003754;28;20427;-74
2022/01/22 16:29:17;;;;;;;62.50;29.17;;;4.70;99.90;;;;;;4989411;28;20126;-73
2022/01/22 16:31:46;;;;;;;54.67;26.13;;;4.70;99.90;;;;;;5001640;28;20156;-73
2022/01/22 16:34:13;;;;;;;55.90;25.20;;;4.70;99.90;;;;;;5008390;28;20249;-73
2022/01/22 16:36:39;;;;;;;63.20;28.48;;;4.70;99.90;;;;;;5011697;28;20026;-73
2022/01/22 16:39:05;;;;;;;58.72;27.90;;;4.70;99.90;;;;;;5018553;28;20455;-76
2022/01/22 16:41:37;;;;;;;67.07;30.88;;;4.70;99.90;;;;;;5017693;28;20022;-77
2022/01/22 16:44:19;;;;;;;69.90;32.53;;;4.70;99.90;;;;;;5010620;28;20443;-77
2022/01/22 16:51:19;;;;;;;61.80;28.77;;;4.60;99.90;;;;;;5011163;28;20034;-77
2022/01/22 16:53:01;;;;;;;63.00;29.42;;;4.30;99.90;;;;;;5032455;28;20048;-76
2022/01/22 16:55:16;;;;;;;59.85;27.90;;;4.20;99.90;;;;;;5033359;28;20053;-76
2022/01/22 16:57:45;;;;;;;57.25;28.20;;;4.20;99.90;;;;;;5031172;28;20035;-76
2022/01/22 17:00:16;;;;;;;60.20;27.63;;;4.10;99.90;;;;;;5018444;28;20177;-77
2022/01/22 17:02:50;;;;;;;58.85;29.88;;;4.20;99.90;;;;;;5024893;28;20026;-77
2022/01/22 17:05:16;;;;;;;61.53;28.13;;;4.20;99.90;;;;;;5022228;28;20092;-76
2022/01/22 17:10:23;;;;;;;73.07;33.55;;;4.20;99.90;;;;;;5026450;28;20028;-77
2022/01/22 17:15:34;;;;;;;63.08;32.47;;;4.20;99.90;;;;;;5024656;28;20498;-77
2022/01/22 17:18:00;;;;;;;62.60;31.00;;;4.20;99.90;;;;;;5023604;28;20057;-76
2022/01/22 17:20:26;;;;;;;64.30;29.17;;;4.20;99.90;;;;;;5022760;28;20057;-76
2022/01/22 17:22:51;;;;;;;70.20;33.30;;;4.20;99.90;;;;;;5012986;28;20026;-76
2022/01/22 17:25:17;;;;;;;77.10;36.13;;;4.20;99.90;;;;;;5025445;28;20029;-76
2022/01/22 17:27:44;;;;;;;69.50;32.25;;;4.20;99.90;;;;;;5023477;28;20659;-77
2022/01/22 17:30:10;;;;;;;71.30;35.35;;;4.10;99.90;;;;;;5024104;28;20490;-77
2022/01/22 17:32:36;;;;;;;65.22;29.80;;;4.00;99.90;;;;;;5024573;28;20094;-77
2022/01/22 17:35:02;;;;;;;65.22;30.13;;;4.00;99.90;;;;;;5023409;28;20510;-76
2022/01/22 17:37:28;;;;;;;61.90;28.10;;;4.00;99.90;;;;;;5022469;28;20106;-77
2022/01/22 17:39:54;;;;;;;57.50;28.80;;;4.10;99.90;;;;;;5024377;28;20036;-77
2022/01/22 17:42:21;;;;;;;67.13;30.85;;;4.00;99.90;;;;;;5003403;28;20115;-76
2022/01/22 17:44:49;;;;;;;88.47;40.80;;;4.00;99.90;;;;;;5008968;28;20040;-76
2022/01/22 17:47:19;;;;;;;76.30;36.72;;;3.90;99.90;;;;;;5012336;28;20397;-76
2022/01/22 17:49:46;;;;;;;62.22;32.08;;;3.90;99.90;;;;;;5020795;28;20029;-77
2022/01/22 17:52:13;;;;;;;69.68;31.00;;;3.90;99.90;;;;;;5022837;28;20033;-76
2022/01/22 17:54:38;;;;;;;74.90;33.92;;;3.90;99.90;;;;;;5003696;28;20084;-76
2022/01/22 17:57:05;;;;;;;73.10;33.25;;;3.90;99.90;;;;;;5020811;28;20460;-76
2022/01/22 17:59:31;;;;;;;65.70;30.70;;;3.90;99.90;;;;;;5005339;28;20151;-76
2022/01/22 18:01:57;;;;;;;65.95;28.25;;;3.90;99.90;;;;;;5003343;28;20036;-77
2022/01/22 18:04:23;;;;;;;57.70;28.55;;;4.00;99.90;;;;;;5028707;28;20026;-76
2022/01/22 18:06:49;;;;;;;64.40;30.33;;;3.90;99.90;;;;;;5021917;28;20030;-77
2022/01/22 18:09:15;;;;;;;58.53;28.40;;;3.80;99.90;;;;;;5028489;28;20033;-76
2022/01/22 18:11:43;;;;;;;54.03;28.77;;;3.80;99.90;;;;;;5025935;28;20032;-76
2022/01/22 18:14:12;;;;;;;64.57;29.40;;;3.80;99.90;;;;;;5024018;28;20022;-76
2022/01/22 18:16:38;;;;;;;60.63;29.37;;;3.70;99.90;;;;;;5023618;28;20018;-76
2022/01/22 18:19:05;;;;;;;61.35;30.58;;;3.80;99.90;;;;;;5005897;28;20379;-77
2022/01/22 18:21:33;;;;;;;56.90;28.20;;;3.80;99.90;;;;;;5023289;28;20030;-76
2022/01/22 18:24:00;;;;;;;65.93;30.80;;;3.60;99.90;;;;;;5021821;28;20097;-76
2022/01/22 18:26:27;;;;;;;65.13;32.07;;;3.50;99.90;;;;;;5023417;28;20032;-76
2022/01/22 18:28:54;;;;;;;62.50;31.55;;;3.60;99.90;;;;;;5030748;28;20030;-77
2022/01/22 18:31:20;;;;;;;69.07;32.70;;;3.60;99.90;;;;;;5024274;28;20124;-77
2022/01/22 18:33:46;;;;;;;68.70;33.33;;;3.50;99.90;;;;;;5016930;28;20104;-77
2022/01/22 18:36:12;;;;;;;66.70;29.45;;;3.50;99.90;;;;;;5022525;28;20037;-76
2022/01/22 18:38:37;;;;;;;71.07;32.58;;;3.50;99.90;;;;;;5025363;28;20029;-77
2022/01/22 18:41:05;;;;;;;66.03;30.38;;;3.50;99.90;;;;;;5027075;28;20061;-76
2022/01/22 18:43:34;;;;;;;64.30;28.73;;;3.40;99.90;;;;;;5010591;28;20091;-77
2022/01/22 18:46:00;;;;;;;86.13;36.43;;;3.40;99.90;;;;;;5023756;28;20033;-77
2022/01/22 18:48:27;;;;;;;84.37;36.87;;;3.30;99.90;;;;;;5020382;28;20045;-77
2022/01/22 18:50:53;;;;;;;78.43;34.53;;;3.20;99.90;;;;;;5017181;28;20050;-76
2022/01/22 18:53:23;;;;;;;68.73;33.57;;;3.00;99.90;;;;;;5000910;28;20032;-76
2022/01/22 18:55:49;;;;;;;62.37;32.07;;;3.00;99.90;;;;;;5018998;28;20026;-77
2022/01/22 18:58:19;;;;;;;62.87;32.17;;;3.00;99.90;;;;;;5016616;28;20030;-77
2022/01/22 19:00:46;;;;;;;63.53;31.80;;;2.90;99.90;;;;;;5006482;28;20487;-77
2022/01/22 19:03:13;;;;;;;67.47;30.70;;;2.90;99.90;;;;;;5029161;28;20025;-77
2022/01/22 19:05:38;;;;;;;57.43;29.10;;;2.90;99.90;;;;;;5011852;28;20026;-77
2022/01/22 19:08:05;;;;;;;62.40;30.83;;;2.90;99.90;;;;;;5019615;28;20418;-78
2022/01/22 19:10:31;;;;;;;60.93;31.37;;;3.00;99.90;;;;;;5005863;28;20032;-77
2022/01/22 19:13:00;;;;;;;62.80;31.70;;;3.00;99.90;;;;;;5028782;28;20038;-77
2022/01/22 19:15:26;;;;;;;65.10;30.97;;;2.90;99.90;;;;;;5030625;28;20029;-76
2022/01/22 19:17:52;;;;;;;65.47;32.23;;;2.90;99.90;;;;;;5032867;28;20029;-77
2022/01/22 19:20:19;;;;;;;57.23;27.43;;;3.00;99.90;;;;;;5032658;28;20032;-77
2022/01/22 19:25:48;;;;;;;56.90;27.73;;;3.10;99.90;;;;;;4991754;28;20049;-77
2022/01/22 19:28:14;;;;;;;60.00;29.07;;;3.00;99.90;;;;;;5012882;28;20029;-77
2022/01/22 19:30:45;;;;;;;60.83;29.17;;;3.00;99.90;;;;;;4995147;28;20107;-77
2022/01/22 19:33:14;;;;;;;66.75;30.58;;;3.00;99.90;;;;;;5011721;28;20021;-73
2022/01/22 19:35:43;;;;;;;82.83;35.93;;;3.00;99.90;;;;;;5010914;28;20018;-73
2022/01/22 19:38:11;;;;;;;88.40;35.57;;;2.90;99.90;;;;;;5011357;28;20021;-73
2022/01/22 19:40:38;;;;;;;87.77;36.43;;;2.90;99.90;;;;;;5011256;28;20026;-73
2022/01/22 19:43:08;;;;;;;72.10;33.27;;;2.80;99.90;;;;;;5010947;28;20034;-73
2022/01/22 19:45:38;;;;;;;71.20;31.80;;;2.90;99.90;;;;;;5011735;28;20056;-73
2022/01/22 19:48:05;;;;;;;72.60;35.57;;;2.90;99.90;;;;;;5011442;28;20054;-73
2022/01/22 19:50:32;;;;;;;69.63;33.13;;;2.90;99.90;;;;;;5012756;28;20034;-74
2022/01/22 19:53:03;;;;;;;71.43;33.13;;;3.00;99.90;;;;;;4997661;28;20022;-73
2022/01/22 19:55:31;;;;;;;78.27;35.07;;;2.80;99.90;;;;;;5019313;28;20029;-73
2022/01/22 19:57:57;;;;;;;72.23;33.90;;;2.80;99.90;;;;;;5019209;28;20710;-74
2022/01/22 20:00:24;;;;;;;67.40;31.23;;;2.70;99.90;;;;;;5019660;28;20057;-73
2022/01/22 20:02:51;;;;;;;73.60;33.33;;;2.70;99.90;;;;;;5001998;28;20053;-73
2022/01/22 20:05:17;;;;;;;71.83;32.47;;;2.70;99.90;;;;;;5033943;28;20487;-74
2022/01/22 20:07:43;;;;;;;66.83;32.30;;;2.70;99.90;;;;;;5037954;28;20022;-73
2022/01/22 20:10:14;;;;;;;66.07;32.67;;;2.60;99.90;;;;;;5039165;28;20037;-73
2022/01/22 20:12:41;;;;;;;67.63;32.67;;;2.60;99.90;;;;;;5037656;28;20026;-73
2022/01/22 20:15:08;;;;;;;74.60;34.00;;;2.60;99.90;;;;;;5037528;28;20079;-73
2022/01/22 20:17:33;;;;;;;70.27;32.93;;;2.70;99.90;;;;;;5038773;28;20027;-73
2022/01/22 20:19:59;;;;;;;76.80;33.37;;;2.70;99.90;;;;;;5026882;28;20120;-74
2022/01/22 20:22:25;;;;;;;75.50;35.63;;;2.80;99.90;;;;;;5000976;28;20076;-74
2022/01/22 20:24:51;;;;;;;72.53;35.87;;;2.70;99.90;;;;;;5018975;28;20104;-73
2022/01/22 20:27:17;;;;;;;78.00;36.37;;;2.70;99.90;;;;;;5018612;28;20029;-73
2022/01/22 20:29:42;;;;;;;75.90;35.87;;;2.60;99.90;;;;;;5018566;28;20028;-73
2022/01/22 20:32:08;;;;;;;75.00;34.87;;;2.60;99.90;;;;;;5018244;28;20406;-73
2022/01/22 20:34:34;;;;;;;73.87;33.73;;;2.70;99.90;;;;;;5018823;28;20096;-73
2022/01/22 20:37:00;;;;;;;65.10;32.33;;;2.70;99.90;;;;;;5018268;28;20025;-73
2022/01/22 20:39:25;;;;;;;68.67;34.03;;;2.80;99.90;;;;;;5001072;28;20117;-73
2022/01/22 20:41:51;;;;;;;77.63;35.53;;;2.80;99.90;;;;;;5018684;28;20034;-73
2022/01/22 20:44:18;;;;;;;72.33;34.00;;;2.80;99.90;;;;;;5000654;28;20475;-73
2022/01/22 20:46:45;;;;;;;73.57;34.53;;;2.90;99.90;;;;;;5018392;28;20030;-74
2022/01/22 20:49:15;;;;;;;72.83;33.93;;;3.00;99.90;;;;;;5018640;28;20026;-73
2022/01/22 20:51:41;;;;;;;70.63;31.93;;;2.90;99.90;;;;;;5000307;28;20181;-73
2022/01/22 20:54:07;;;;;;;71.70;34.73;;;2.90;99.90;;;;;;5018548;28;20079;-73
2022/01/22 20:56:34;;;;;;;72.33;34.43;;;2.80;99.90;;;;;;5018742;28;20109;-73
2022/01/22 20:59:04;;;;;;;82.63;38.10;;;2.80;99.90;;;;;;5018509;28;20103;-74
2022/01/22 21:01:30;;;;;;;76.23;34.90;;;2.80;99.90;;;;;;5018854;28;20026;-73
2022/01/22 21:03:59;;;;;;;66.50;32.97;;;2.80;99.90;;;;;;4999847;28;20037;-73
2022/01/22 21:06:27;;;;;;;69.17;34.10;;;2.60;99.90;;;;;;4998066;28;20395;-73
2022/01/22 21:08:53;;;;;;;67.37;33.00;;;2.60;99.90;;;;;;5015699;28;20030;-73
2022/01/22 21:11:20;;;;;;;73.43;35.07;;;2.50;99.90;;;;;;5015783;28;20053;-73
2022/01/22 21:13:48;;;;;;;73.13;36.97;;;2.40;99.90;;;;;;5015498;28;20033;-74
2022/01/22 21:16:16;;;;;;;74.13;35.50;;;2.40;99.90;;;;;;4997407;28;20080;-73
2022/01/22 21:18:46;;;;;;;77.57;39.13;;;2.30;99.90;;;;;;5014555;28;20117;-73
2022/01/22 21:21:12;;;;;;;76.67;39.27;;;2.20;99.90;;;;;;4997266;28;20026;-73
2022/01/22 21:23:39;;;;;;;72.97;38.87;;;2.20;99.90;;;;;;5015148;28;20030;-73
2022/01/22 21:26:05;;;;;;;76.13;37.70;;;2.30;99.90;;;;;;5014951;28;20020;-73
2022/01/22 21:28:31;;;;;;;76.83;37.00;;;2.30;99.90;;;;;;5014974;28;20101;-73
2022/01/22 21:30:57;;;;;;;75.40;36.90;;;2.30;99.90;;;;;;5015255;28;20022;-73
2022/01/22 21:33:33;;;;;;;71.23;33.97;;;2.20;99.90;;;;;;4997765;28;20057;-77
2022/01/22 21:36:00;;;;;;;68.33;32.30;;;2.20;99.90;;;;;;5015064;28;20030;-74
2022/01/22 21:38:30;;;;;;;63.13;32.17;;;2.30;99.90;;;;;;5015331;28;20030;-74
2022/01/22 21:40:58;;;;;;;65.57;30.10;;;2.30;99.90;;;;;;5015120;28;20030;-74
2022/01/22 21:43:24;;;;;;;64.63;30.73;;;2.40;99.90;;;;;;5014754;28;20391;-74
2022/01/22 21:45:50;;;;;;;66.43;28.83;;;2.30;99.90;;;;;;5015065;28;20026;-73
2022/01/22 21:48:19;;;;;;;64.03;30.30;;;2.40;99.90;;;;;;5014929;28;20547;-74
2022/01/22 21:50:46;;;;;;;63.37;30.30;;;2.40;99.90;;;;;;5015122;28;20018;-74
2022/01/22 21:53:14;;;;;;;60.83;29.07;;;2.50;99.90;;;;;;5014843;28;20040;-73
2022/01/22 21:55:40;;;;;;;54.63;28.10;;;2.50;99.90;;;;;;5014807;28;20031;-74
2022/01/22 21:58:06;;;;;;;61.53;29.00;;;2.60;99.90;;;;;;5014884;28;20017;-74
2022/01/22 22:00:32;;;;;;;63.83;29.73;;;2.60;99.90;;;;;;4997056;28;20034;-73
2022/01/22 22:03:00;;;;;;;61.60;30.97;;;2.60;99.90;;;;;;5014757;28;20037;-73
2022/01/22 22:05:34;;;;;;;67.10;32.17;;;2.50;99.90;;;;;;5024160;28;20103;-73
2022/01/22 22:08:01;;;;;;;63.67;30.03;;;2.40;99.90;;;;;;5016889;28;20029;-73
2022/01/22 22:10:28;;;;;;;64.23;31.77;;;2.40;99.90;;;;;;5034363;28;20104;-74
2022/01/22 22:12:54;;;;;;;69.90;34.50;;;2.40;99.90;;;;;;5033754;28;20164;-74
2022/01/22 22:15:20;;;;;;;69.87;33.47;;;2.20;99.90;;;;;;5033481;28;20485;-73
2022/01/22 22:17:46;;;;;;;71.00;35.80;;;2.10;99.90;;;;;;5011506;28;20018;-74
2022/01/22 22:20:14;;;;;;;87.10;42.93;;;2.10;99.90;;;;;;5034145;28;20030;-73
2022/01/22 22:22:40;;;;;;;98.03;46.50;;;2.10;99.90;;;;;;5034226;28;20033;-77
2022/01/22 22:25:08;;;;;;;64.30;31.77;;;2.00;99.90;;;;;;5016357;28;20037;-76
2022/01/22 22:27:37;;;;;;;61.93;30.37;;;2.00;99.90;;;;;;5034125;28;20068;-77
2022/01/22 22:30:06;;;;;;;61.07;31.20;;;2.20;99.90;;;;;;5015954;28;20030;-77
2022/01/22 22:32:35;;;;;;;60.13;30.57;;;2.30;99.90;;;;;;5024991;28;20418;-77
2022/01/22 22:35:01;;;;;;;58.37;29.33;;;2.30;99.90;;;;;;5014127;28;20428;-77
2022/01/22 22:37:28;;;;;;;57.37;30.17;;;2.40;99.90;;;;;;5014285;28;20484;-77
2022/01/22 22:39:53;;;;;;;68.93;31.40;;;2.30;99.90;;;;;;5014084;28;20097;-77
2022/01/22 22:42:20;;;;;;;63.63;31.43;;;2.20;99.90;;;;;;5027370;28;20033;-76
2022/01/22 22:44:55;;;;;;;67.13;31.33;;;2.20;99.90;;;;;;5029331;28;20120;-76
2022/01/22 22:47:21;;;;;;;60.07;28.60;;;2.30;99.90;;;;;;5029274;28;20083;-76
2022/01/22 22:50:07;;;;;;;63.10;32.00;;;2.20;99.90;;;;;;5028243;28;20394;-76
2022/01/22 22:52:32;;;;;;;69.17;33.07;;;2.00;99.90;;;;;;5024216;28;20537;-77
2022/01/22 22:54:58;;;;;;;73.57;34.90;;;1.90;99.90;;;;;;5031264;28;20028;-77
2022/01/22 22:57:24;;;;;;;67.80;34.13;;;1.90;99.90;;;;;;5029964;28;20080;-76
2022/01/22 22:59:49;;;;;;;65.17;34.47;;;1.90;99.90;;;;;;5029490;28;20053;-77
2022/01/22 23:02:18;;;;;;;63.33;33.57;;;2.00;99.90;;;;;;5023035;28;20026;-77
2022/01/22 23:04:44;;;;;;;70.00;35.20;;;1.90;99.90;;;;;;5009623;28;20391;-78
2022/01/22 23:07:10;;;;;;;75.33;36.10;;;2.00;99.90;;;;;;5010635;28;20026;-77
2022/01/22 23:09:39;;;;;;;69.93;34.13;;;2.10;99.90;;;;;;5010646;28;20077;-77
2022/01/22 23:12:09;;;;;;;70.73;34.83;;;2.00;99.90;;;;;;5018040;28;20053;-77
2022/01/22 23:14:35;;;;;;;67.97;34.40;;;2.10;99.90;;;;;;5010709;28;20050;-77
2022/01/22 23:25:41;;;;;;;61.97;30.47;;;1.80;99.90;;;;;;5003007;28;20041;-77
2022/01/22 23:28:16;;;;;;;57.65;31.00;;;1.80;99.90;;;;;;5020947;28;20063;-77
2022/01/22 23:30:45;;;;;;;53.50;28.33;;;1.90;99.90;;;;;;5010093;28;20506;-76
2022/01/22 23:54:43;;;;;;;44.40;22.30;;;1.80;99.90;;;;;;5008772;28;20112;-76
